Rosamond, CA

7:13 PM PDT on September 15, 2014 (GMT -0700)
RAWS GRASS MOUNTAIN CA US | Change Station
CLOSE
Current Station
Personal Weather Station
Location: Lake Hughes, CA
Elevation: 4625 ft
Nearby Weather Stations

Elev 4625 ft 34.64 °N, 118.41 °W | Updated 1 hour ago

Clear
Clear
85 °F
Feels Like 83 °F
N
12
Wind Variable Wind from South
Gusts 19.0 mph

Today
High -- | Low -- °F
--% Chance of Precip.
Yesterday
High -- | Low -- °F
Precip. -- in
6:36 AM 6:59 PM
Waning Gibbous, 50% visible
Pressure 29.81 in
Visibility 10.0 miles
Clouds Clear
Heat Index 83 °F
Dew Point 47 °F
Humidity 27%
Rainfall 0.00 in
Snow Depth 0 in , 0 in , 0 in
UV 0 out of 12
Pollen 7.70 out of 12
Ozone Moderate
Flu Activity Not available.
METAR KWJF 160156Z AUTO 27016KT 10SM CLR 33/08 A2987 RMK AO2 SLP094 T03330078 TSNO

More Conditions Fewer Conditions

Pressure 29.81 in
Visibility 10.0 miles
Clouds Clear
Heat Index 83 °F
Dew Point 47 °F
Humidity 27%
Rainfall 0.00 in
Snow Depth 0 in , 0 in , 0 in
UV 0 out of 12
Pollen 7.70 out of 12
Ozone Moderate
Flu Activity Not available.
METAR KWJF 160156Z AUTO 27016KT 10SM CLR 33/08 A2987 RMK AO2 SLP094 T03330078 TSNO

More Conditions Fewer Conditions

10-Day Weather Forecast

Almanac

Astronomy

Sep. 15, 2014 Rise Set
Actual Time 6:36 AM PDT 6:59 PM PDT
Civil Twilight 6:10 AM PDT 7:25 PM PDT
Nautical Twilight 5:41 AM PDT 7:54 PM PDT
Astronomical Twilight 5:10 AM PDT 8:24 PM PDT
Moon No Moon Rise 1:26 PM PDT (9/15)
Length of Visible Light 13h 14m
Length of Day
12h 23m
Tomorrow will be 2m 9s shorter.
Waning Gibbous, 50% of the Moon is Illuminated
Today
Waning Gibbous
Sep 24
New
Oct 1
First Quarter
Oct 8
Full
Oct 15
Last Quarter

Today's Extremes

State Highs State Lows

Community

WunderPhotos

Upload Photos

1,753,664 photos uploaded!

WunderBlogs® & News

Nearby

Air Quality

  Air Quality AQ Index Pollutant
Yesterday Moderate
OZONE
Current Moderate
OZONE
Tuesday Good
PM10
Tuesday Good
OZONE
Tuesday Good
CO
Tuesday Good
NO2

Snow Depth

Station Depth Elevation
Summit Meadow 0 in 9122 ft
Adin Mountain 0 in 6200 ft
Spratt Creek 0 in 6200 ft
CSS Lab 1 in 6900 ft

Earthquake Activity

City Distance Mag. Time & Date
Inyokern, California 74 miles 3.2 5:56 PM PDT
2014-09-14
San Jacinto, California 104 miles 3.0 3:16 PM PDT
2014-09-14
Minimum magnitude displayed is 2.5.

Coastal Water Temperatures

Place Temperature
No Stations Reporting

Nearby Weather Stations